sensor_id;sensor_type;location;lat;lon;timestamp;noise_LAeq;noise_LA_min;noise_LA_max;noise_LA01;noise_LA95
77135;Laerm;48586;50.122;18.972;2023-08-01T07:25:31;39.75;34.73;64.66;;
77135;Laerm;48586;50.122;18.972;2023-08-01T07:28:09;40.37;34.61;68.61;;
77135;Laerm;48586;50.122;18.972;2023-08-01T07:30:47;43.28;34.53;61.93;;
77135;Laerm;48586;50.122;18.972;2023-08-01T07:33:24;46.02;34.64;74.95;;
77135;Laerm;48586;50.122;18.972;2023-08-01T07:37:27;51.97;35.82;82.24;;
77135;Laerm;48586;50.122;18.972;2023-08-01T07:40:09;50.93;36.18;70.13;;
77135;Laerm;48586;50.122;18.972;2023-08-01T07:42:47;51.06;36.99;67.39;;
77135;Laerm;48586;50.122;18.972;2023-08-01T07:45:25;51.63;36.41;72.44;;
77135;Laerm;48586;50.122;18.972;2023-08-01T08:15:17;50.55;40.54;72.79;;
77135;Laerm;48586;50.122;18.972;2023-08-01T08:17:23;51.73;39.39;71.76;;
77135;Laerm;48586;50.122;18.972;2023-08-01T08:19:28;50.78;40.18;63.31;;
77135;Laerm;48586;50.122;18.972;2023-08-01T08:21:35;50.88;43.08;67.76;;
77135;Laerm;48586;50.122;18.972;2023-08-01T08:23:41;48.55;38.07;61.05;;
77135;Laerm;48586;50.122;18.972;2023-08-01T08:25:45;50.70;38.55;62.22;;
77135;Laerm;48586;50.122;18.972;2023-08-01T08:27:56;50.14;41.60;63.76;;
77135;Laerm;48586;50.122;18.972;2023-08-01T08:30:02;50.25;40.83;63.01;;
77135;Laerm;48586;50.122;18.972;2023-08-01T08:32:10;50.79;39.08;64.69;;
77135;Laerm;48586;50.122;18.972;2023-08-01T08:34:26;50.55;40.19;63.76;;
77135;Laerm;48586;50.122;18.972;2023-08-01T08:36:31;48.95;39.71;57.61;;
77135;Laerm;48586;50.122;18.972;2023-08-01T08:38:36;51.40;39.48;66.46;;
77135;Laerm;48586;50.122;18.972;2023-08-01T08:40:57;48.72;37.81;59.12;;
77135;Laerm;48586;50.122;18.972;2023-08-01T08:43:07;49.06;39.47;58.74;;
77135;Laerm;48586;50.122;18.972;2023-08-01T08:48:13;49.90;39.09;62.42;;
77135;Laerm;48586;50.122;18.972;2023-08-01T08:51:26;50.90;40.65;62.69;;
77135;Laerm;48586;50.122;18.972;2023-08-01T09:23:17;63.24;38.96;83.92;;
77135;Laerm;48586;50.122;18.972;2023-08-01T09:26:26;49.18;38.81;63.11;;
77135;Laerm;48586;50.122;18.972;2023-08-01T09:29:36;49.75;37.94;65.49;;
77135;Laerm;48586;50.122;18.972;2023-08-01T09:32:51;48.49;37.97;62.09;;
77135;Laerm;48586;50.122;18.972;2023-08-01T09:35:56;49.69;39.19;62.98;;
77135;Laerm;48586;50.122;18.972;2023-08-01T09:39:04;50.66;39.77;69.87;;
77135;Laerm;48586;50.122;18.972;2023-08-01T09:42:09;50.56;38.52;63.78;;
77135;Laerm;48586;50.122;18.972;2023-08-01T09:45:18;51.48;39.00;62.68;;
77135;Laerm;48586;50.122;18.972;2023-08-01T09:48:27;50.04;40.29;64.44;;
77135;Laerm;48586;50.122;18.972;2023-08-01T09:51:33;51.02;40.42;73.21;;
77135;Laerm;48586;50.122;18.972;2023-08-01T09:54:40;51.01;42.47;60.94;;
77135;Laerm;48586;50.122;18.972;2023-08-01T09:57:50;50.69;41.10;67.40;;
77135;Laerm;48586;50.122;18.972;2023-08-01T10:25:11;72.14;44.82;91.39;;
77135;Laerm;48586;50.122;18.972;2023-08-01T10:28:17;62.50;42.59;85.29;;
77135;Laerm;48586;50.122;18.972;2023-08-01T10:31:22;54.07;44.38;70.75;;
77135;Laerm;48586;50.122;18.972;2023-08-01T10:34:27;55.06;43.52;72.97;;
77135;Laerm;48586;50.122;18.972;2023-08-01T10:37:42;62.19;47.22;82.63;;
77135;Laerm;48586;50.122;18.972;2023-08-01T10:40:52;60.20;50.72;78.42;;
77135;Laerm;48586;50.122;18.972;2023-08-01T10:44:11;58.17;44.80;78.44;;
77135;Laerm;48586;50.122;18.972;2023-08-01T10:47:26;57.44;46.61;76.20;;
77135;Laerm;48586;50.122;18.972;2023-08-01T10:50:32;57.64;46.60;80.05;;
77135;Laerm;48586;50.122;18.972;2023-08-01T10:53:39;56.62;47.28;73.00;;
77135;Laerm;48586;50.122;18.972;2023-08-01T10:56:52;55.87;46.76;74.84;;
77135;Laerm;48586;50.122;18.972;2023-08-01T11:00:02;56.15;48.13;75.85;;
77135;Laerm;48586;50.122;18.972;2023-08-01T11:03:11;54.81;46.30;73.92;;
77135;Laerm;48586;50.122;18.972;2023-08-01T11:06:20;54.56;45.68;69.66;;
77135;Laerm;48586;50.122;18.972;2023-08-01T11:09:26;52.89;44.49;64.00;;
77135;Laerm;48586;50.122;18.972;2023-08-01T11:12:39;54.60;45.72;70.59;;
77135;Laerm;48586;50.122;18.972;2023-08-01T11:15:45;58.60;50.54;72.03;;
77135;Laerm;48586;50.122;18.972;2023-08-01T11:18:51;57.92;51.04;72.76;;
77135;Laerm;48586;50.122;18.972;2023-08-01T11:21:57;56.19;44.92;74.77;;
77135;Laerm;48586;50.122;18.972;2023-08-01T11:25:04;54.21;45.63;61.66;;
77135;Laerm;48586;50.122;18.972;2023-08-01T11:28:15;65.36;47.13;88.47;;
77135;Laerm;48586;50.122;18.972;2023-08-01T11:31:21;53.44;44.57;63.69;;
77135;Laerm;48586;50.122;18.972;2023-08-01T11:34:26;54.57;47.28;63.64;;
77135;Laerm;48586;50.122;18.972;2023-08-01T11:37:33;55.51;45.38;69.12;;
77135;Laerm;48586;50.122;18.972;2023-08-01T11:40:40;52.41;45.68;61.42;;
77135;Laerm;48586;50.122;18.972;2023-08-01T11:43:48;54.53;44.76;67.23;;
77135;Laerm;48586;50.122;18.972;2023-08-01T11:46:53;54.62;45.91;62.98;;
77135;Laerm;48586;50.122;18.972;2023-08-01T11:49:58;56.35;47.63;72.74;;
77135;Laerm;48586;50.122;18.972;2023-08-01T11:53:03;54.31;44.96;67.50;;
77135;Laerm;48586;50.122;18.972;2023-08-01T11:56:19;54.78;46.86;65.21;;
77135;Laerm;48586;50.122;18.972;2023-08-01T11:59:26;57.09;47.03;74.84;;
77135;Laerm;48586;50.122;18.972;2023-08-01T12:02:32;59.63;44.83;81.17;;
77135;Laerm;48586;50.122;18.972;2023-08-01T12:05:36;55.16;46.18;67.55;;
77135;Laerm;48586;50.122;18.972;2023-08-01T12:08:46;55.82;45.83;74.81;;
77135;Laerm;48586;50.122;18.972;2023-08-01T12:11:59;59.03;46.94;76.45;;
77135;Laerm;48586;50.122;18.972;2023-08-01T12:15:09;55.87;47.08;68.85;;
77135;Laerm;48586;50.122;18.972;2023-08-01T12:18:21;55.83;44.79;67.96;;
77135;Laerm;48586;50.122;18.972;2023-08-01T12:21:27;54.21;44.66;71.33;;
77135;Laerm;48586;50.122;18.972;2023-08-01T12:24:31;54.80;45.94;70.75;;
77135;Laerm;48586;50.122;18.972;2023-08-01T12:27:39;54.78;43.95;69.72;;
77135;Laerm;48586;50.122;18.972;2023-08-01T12:30:48;59.46;45.11;76.23;;
77135;Laerm;48586;50.122;18.972;2023-08-01T12:33:54;55.76;45.05;70.22;;
77135;Laerm;48586;50.122;18.972;2023-08-01T12:37:06;56.80;45.08;74.22;;
77135;Laerm;48586;50.122;18.972;2023-08-01T12:40:12;58.24;46.87;76.38;;
77135;Laerm;48586;50.122;18.972;2023-08-01T12:43:16;57.75;46.69;76.96;;
77135;Laerm;48586;50.122;18.972;2023-08-01T12:46:24;58.24;48.85;78.29;;
77135;Laerm;48586;50.122;18.972;2023-08-01T12:49:29;54.10;45.84;68.40;;
77135;Laerm;48586;50.122;18.972;2023-08-01T12:52:35;55.84;46.43;70.27;;
77135;Laerm;48586;50.122;18.972;2023-08-01T12:55:43;55.71;47.76;70.33;;
77135;Laerm;48586;50.122;18.972;2023-08-01T12:58:49;54.85;46.44;63.35;;
77135;Laerm;48586;50.122;18.972;2023-08-01T13:01:56;52.97;44.08;63.07;;
77135;Laerm;48586;50.122;18.972;2023-08-01T13:05:09;53.83;45.24;71.26;;
77135;Laerm;48586;50.122;18.972;2023-08-01T13:08:20;55.41;46.70;66.07;;
77135;Laerm;48586;50.122;18.972;2023-08-01T13:11:25;54.40;45.35;65.47;;
77135;Laerm;48586;50.122;18.972;2023-08-01T13:14:32;54.08;45.91;60.26;;
77135;Laerm;48586;50.122;18.972;2023-08-01T13:17:48;54.45;47.20;63.57;;
77135;Laerm;48586;50.122;18.972;2023-08-01T13:20:57;53.00;44.49;62.00;;
77135;Laerm;48586;50.122;18.972;2023-08-01T13:24:03;55.38;46.65;72.28;;
77135;Laerm;48586;50.122;18.972;2023-08-01T13:27:08;54.52;46.10;70.34;;
77135;Laerm;48586;50.122;18.972;2023-08-01T13:30:20;54.60;43.30;63.05;;
77135;Laerm;48586;50.122;18.972;2023-08-01T13:33:28;55.75;46.27;78.07;;
77135;Laerm;48586;50.122;18.972;2023-08-01T13:36:33;54.82;46.90;66.20;;
77135;Laerm;48586;50.122;18.972;2023-08-01T13:39:38;53.27;43.90;63.67;;
77135;Laerm;48586;50.122;18.972;2023-08-01T13:42:43;57.38;45.74;76.56;;
77135;Laerm;48586;50.122;18.972;2023-08-01T13:45:48;56.27;47.11;69.60;;
77135;Laerm;48586;50.122;18.972;2023-08-01T13:49:01;56.58;46.21;75.04;;
77135;Laerm;48586;50.122;18.972;2023-08-01T13:52:12;54.62;45.47;64.03;;
77135;Laerm;48586;50.122;18.972;2023-08-01T13:55:17;56.75;47.11;72.60;;
77135;Laerm;48586;50.122;18.972;2023-08-01T13:58:22;57.93;44.73;73.36;;
77135;Laerm;48586;50.122;18.972;2023-08-01T14:01:27;58.06;46.05;75.40;;
77135;Laerm;48586;50.122;18.972;2023-08-01T14:04:34;57.28;43.76;72.67;;
77135;Laerm;48586;50.122;18.972;2023-08-01T14:07:40;57.18;44.51;71.75;;
77135;Laerm;48586;50.122;18.972;2023-08-01T14:10:45;55.65;43.88;71.52;;
77135;Laerm;48586;50.122;18.972;2023-08-01T14:13:51;57.98;44.38;76.62;;
77135;Laerm;48586;50.122;18.972;2023-08-01T14:16:56;56.22;45.38;75.21;;
77135;Laerm;48586;50.122;18.972;2023-08-01T14:20:06;60.23;44.98;76.36;;
77135;Laerm;48586;50.122;18.972;2023-08-01T14:23:12;55.92;45.47;73.10;;
77135;Laerm;48586;50.122;18.972;2023-08-01T14:26:18;56.49;46.95;72.72;;
77135;Laerm;48586;50.122;18.972;2023-08-01T14:29:22;55.51;44.82;75.08;;
77135;Laerm;48586;50.122;18.972;2023-08-01T14:32:28;55.56;43.93;77.50;;
77135;Laerm;48586;50.122;18.972;2023-08-01T14:35:39;54.29;41.87;72.48;;
77135;Laerm;48586;50.122;18.972;2023-08-01T14:38:45;53.01;41.62;71.78;;
77135;Laerm;48586;50.122;18.972;2023-08-01T14:41:56;52.98;42.07;74.47;;
77135;Laerm;48586;50.122;18.972;2023-08-01T14:45:01;53.06;42.10;70.87;;
77135;Laerm;48586;50.122;18.972;2023-08-01T14:48:06;52.82;41.69;67.55;;
77135;Laerm;48586;50.122;18.972;2023-08-01T14:51:15;53.28;42.14;69.28;;
77135;Laerm;48586;50.122;18.972;2023-08-01T14:54:20;51.16;41.07;63.12;;
77135;Laerm;48586;50.122;18.972;2023-08-01T14:57:27;54.52;42.17;78.41;;
77135;Laerm;48586;50.122;18.972;2023-08-01T15:00:35;53.65;42.44;76.26;;
77135;Laerm;48586;50.122;18.972;2023-08-01T15:03:40;57.23;45.57;77.95;;
77135;Laerm;48586;50.122;18.972;2023-08-01T15:06:48;54.14;44.06;66.66;;
77135;Laerm;48586;50.122;18.972;2023-08-01T15:09:53;58.07;48.58;73.53;;
77135;Laerm;48586;50.122;18.972;2023-08-01T15:12:58;57.09;48.93;73.64;;
77135;Laerm;48586;50.122;18.972;2023-08-01T15:16:08;55.97;46.72;73.26;;
77135;Laerm;48586;50.122;18.972;2023-08-01T15:19:13;56.97;45.40;75.80;;
77135;Laerm;48586;50.122;18.972;2023-08-01T15:22:21;54.85;44.96;69.63;;
77135;Laerm;48586;50.122;18.972;2023-08-01T15:25:26;55.22;45.59;70.48;;
77135;Laerm;48586;50.122;18.972;2023-08-01T15:28:31;54.43;45.14;63.35;;
77135;Laerm;48586;50.122;18.972;2023-08-01T15:31:37;54.45;45.73;63.69;;
77135;Laerm;48586;50.122;18.972;2023-08-01T15:34:43;53.07;44.12;70.26;;
77135;Laerm;48586;50.122;18.972;2023-08-01T15:37:51;52.45;43.88;61.92;;
77135;Laerm;48586;50.122;18.972;2023-08-01T15:40:56;53.72;43.72;60.66;;
77135;Laerm;48586;50.122;18.972;2023-08-01T15:44:04;54.62;42.98;69.09;;
77135;Laerm;48586;50.122;18.972;2023-08-01T15:47:10;52.71;42.89;69.00;;
77135;Laerm;48586;50.122;18.972;2023-08-01T15:50:15;52.81;42.14;62.03;;
77135;Laerm;48586;50.122;18.972;2023-08-01T15:53:23;52.95;43.06;59.90;;
77135;Laerm;48586;50.122;18.972;2023-08-01T15:56:28;51.77;42.70;61.33;;
77135;Laerm;48586;50.122;18.972;2023-08-01T15:59:34;51.94;41.87;64.25;;
77135;Laerm;48586;50.122;18.972;2023-08-01T16:02:38;53.01;44.22;62.77;;
77135;Laerm;48586;50.122;18.972;2023-08-01T16:05:44;52.74;43.53;61.51;;
77135;Laerm;48586;50.122;18.972;2023-08-01T16:08:52;52.72;41.73;59.18;;
77135;Laerm;48586;50.122;18.972;2023-08-01T16:11:57;51.47;41.68;62.22;;
77135;Laerm;48586;50.122;18.972;2023-08-01T16:15:03;52.32;40.89;67.25;;
77135;Laerm;48586;50.122;18.972;2023-08-01T16:18:09;56.37;42.69;78.21;;
77135;Laerm;48586;50.122;18.972;2023-08-01T16:21:13;50.82;41.12;59.18;;
77135;Laerm;48586;50.122;18.972;2023-08-01T16:24:22;51.75;40.04;60.23;;
77135;Laerm;48586;50.122;18.972;2023-08-01T16:27:26;52.59;41.62;71.69;;
77135;Laerm;48586;50.122;18.972;2023-08-01T16:30:32;50.17;40.12;58.53;;
77135;Laerm;48586;50.122;18.972;2023-08-01T16:33:38;52.68;40.81;68.44;;
77135;Laerm;48586;50.122;18.972;2023-08-01T16:36:45;49.90;38.73;61.46;;
77135;Laerm;48586;50.122;18.972;2023-08-01T16:39:58;51.56;38.29;60.66;;
77135;Laerm;48586;50.122;18.972;2023-08-01T16:43:04;50.86;38.18;65.60;;
77135;Laerm;48586;50.122;18.972;2023-08-01T16:46:09;51.03;39.72;62.93;;
77135;Laerm;48586;50.122;18.972;2023-08-01T16:49:14;52.33;39.16;64.02;;
77135;Laerm;48586;50.122;18.972;2023-08-01T16:52:19;51.76;39.27;67.65;;
77135;Laerm;48586;50.122;18.972;2023-08-01T16:55:27;53.16;39.99;70.47;;
77135;Laerm;48586;50.122;18.972;2023-08-01T16:58:32;53.40;39.69;71.68;;
77135;Laerm;48586;50.122;18.972;2023-08-01T17:01:41;54.83;41.15;73.18;;
77135;Laerm;48586;50.122;18.972;2023-08-01T17:04:45;52.45;39.05;67.26;;
77135;Laerm;48586;50.122;18.972;2023-08-01T17:07:53;51.43;38.40;67.38;;
77135;Laerm;48586;50.122;18.972;2023-08-01T17:11:04;48.90;39.59;66.56;;
77135;Laerm;48586;50.122;18.972;2023-08-01T17:14:10;51.12;39.89;68.97;;
77135;Laerm;48586;50.122;18.972;2023-08-01T17:17:15;50.29;38.24;62.10;;
77135;Laerm;48586;50.122;18.972;2023-08-01T17:20:20;51.38;38.89;65.57;;
77135;Laerm;48586;50.122;18.972;2023-08-01T17:23:25;54.09;39.45;71.70;;
77135;Laerm;48586;50.122;18.972;2023-08-01T17:26:33;50.62;38.95;66.62;;
77135;Laerm;48586;50.122;18.972;2023-08-01T17:29:38;50.46;39.82;64.29;;
77135;Laerm;48586;50.122;18.972;2023-08-01T17:32:43;50.18;39.27;62.16;;
77135;Laerm;48586;50.122;18.972;2023-08-01T17:35:50;50.55;38.42;62.28;;
77135;Laerm;48586;50.122;18.972;2023-08-01T17:38:55;49.85;38.20;63.84;;
77135;Laerm;48586;50.122;18.972;2023-08-01T17:42:02;50.31;39.92;62.20;;
77135;Laerm;48586;50.122;18.972;2023-08-01T17:45:11;53.47;39.32;65.67;;
77135;Laerm;48586;50.122;18.972;2023-08-01T17:48:16;55.38;39.34;83.81;;
77135;Laerm;48586;50.122;18.972;2023-08-01T17:51:21;50.09;38.39;64.39;;
77135;Laerm;48586;50.122;18.972;2023-08-01T17:54:26;49.98;39.45;66.95;;
77135;Laerm;48586;50.122;18.972;2023-08-01T17:57:34;51.06;39.42;64.07;;
77135;Laerm;48586;50.122;18.972;2023-08-01T18:00:39;49.48;37.96;67.30;;
77135;Laerm;48586;50.122;18.972;2023-08-01T18:03:44;53.95;39.05;78.50;;
77135;Laerm;48586;50.122;18.972;2023-08-01T18:06:49;54.83;38.28;75.76;;
77135;Laerm;48586;50.122;18.972;2023-08-01T18:09:57;51.48;38.50;73.08;;
77135;Laerm;48586;50.122;18.972;2023-08-01T18:13:04;61.60;39.43;82.46;;
77135;Laerm;48586;50.122;18.972;2023-08-01T18:16:19;51.94;39.38;65.80;;
77135;Laerm;48586;50.122;18.972;2023-08-01T18:19:28;48.05;38.30;62.35;;
77135;Laerm;48586;50.122;18.972;2023-08-01T18:22:34;48.72;37.99;66.92;;
77135;Laerm;48586;50.122;18.972;2023-08-01T18:25:38;48.08;38.04;60.14;;
77135;Laerm;48586;50.122;18.972;2023-08-01T18:28:47;48.79;38.11;64.86;;
77135;Laerm;48586;50.122;18.972;2023-08-01T18:31:52;50.74;37.72;66.14;;
77135;Laerm;48586;50.122;18.972;2023-08-01T18:34:57;50.73;38.06;67.75;;
77135;Laerm;48586;50.122;18.972;2023-08-01T18:38:03;50.57;37.52;68.39;;
77135;Laerm;48586;50.122;18.972;2023-08-01T18:41:10;48.95;37.60;69.71;;
77135;Laerm;48586;50.122;18.972;2023-08-01T18:44:17;47.84;37.25;61.04;;
77135;Laerm;48586;50.122;18.972;2023-08-01T18:47:23;47.21;37.62;57.33;;
77135;Laerm;48586;50.122;18.972;2023-08-01T18:50:30;47.73;37.70;59.25;;
77135;Laerm;48586;50.122;18.972;2023-08-01T18:53:38;48.90;37.33;65.01;;
77135;Laerm;48586;50.122;18.972;2023-08-01T18:56:43;47.76;37.29;65.13;;
77135;Laerm;48586;50.122;18.972;2023-08-01T18:59:51;48.66;37.92;68.16;;
77135;Laerm;48586;50.122;18.972;2023-08-01T19:02:56;46.98;37.12;60.41;;
77135;Laerm;48586;50.122;18.972;2023-08-01T19:06:02;48.69;38.96;60.97;;
77135;Laerm;48586;50.122;18.972;2023-08-01T19:09:07;48.32;36.82;62.39;;
77135;Laerm;48586;50.122;18.972;2023-08-01T19:12:13;47.07;37.35;59.19;;
77135;Laerm;48586;50.122;18.972;2023-08-01T19:15:20;47.62;37.12;56.68;;
77135;Laerm;48586;50.122;18.972;2023-08-01T19:18:27;44.50;36.25;57.36;;
77135;Laerm;48586;50.122;18.972;2023-08-01T19:21:32;47.04;37.53;57.45;;
77135;Laerm;48586;50.122;18.972;2023-08-01T19:24:38;46.56;36.21;64.58;;
77135;Laerm;48586;50.122;18.972;2023-08-01T19:27:43;46.32;36.68;62.79;;
77135;Laerm;48586;50.122;18.972;2023-08-01T19:30:52;46.56;37.03;57.62;;
77135;Laerm;48586;50.122;18.972;2023-08-01T19:33:57;47.60;37.29;60.83;;
77135;Laerm;48586;50.122;18.972;2023-08-01T19:37:04;45.68;37.09;57.14;;
77135;Laerm;48586;50.122;18.972;2023-08-01T19:40:10;47.29;37.17;62.25;;
77135;Laerm;48586;50.122;18.972;2023-08-01T19:43:15;46.19;36.92;57.83;;
77135;Laerm;48586;50.122;18.972;2023-08-01T19:46:23;49.16;37.05;65.82;;
77135;Laerm;48586;50.122;18.972;2023-08-01T19:49:30;47.84;36.06;66.35;;
77135;Laerm;48586;50.122;18.972;2023-08-01T19:52:35;43.79;36.27;61.31;;
77135;Laerm;48586;50.122;18.972;2023-08-01T19:55:40;48.29;36.39;63.42;;
77135;Laerm;48586;50.122;18.972;2023-08-01T19:58:45;48.80;36.43;65.95;;
77135;Laerm;48586;50.122;18.972;2023-08-01T20:01:53;48.80;36.83;62.99;;
77135;Laerm;48586;50.122;18.972;2023-08-01T20:04:58;46.82;36.38;61.18;;
77135;Laerm;48586;50.122;18.972;2023-08-01T20:08:04;47.83;36.76;59.92;;
77135;Laerm;48586;50.122;18.972;2023-08-01T20:11:08;45.11;36.40;57.65;;
77135;Laerm;48586;50.122;18.972;2023-08-01T20:14:14;47.60;36.11;67.13;;
77135;Laerm;48586;50.122;18.972;2023-08-01T20:17:23;45.21;35.93;58.12;;
77135;Laerm;48586;50.122;18.972;2023-08-01T20:20:29;48.31;36.51;63.73;;
77135;Laerm;48586;50.122;18.972;2023-08-01T20:23:34;47.47;36.34;64.23;;
77135;Laerm;48586;50.122;18.972;2023-08-01T20:26:39;47.93;36.36;65.87;;
77135;Laerm;48586;50.122;18.972;2023-08-01T20:29:45;45.44;35.87;61.32;;
77135;Laerm;48586;50.122;18.972;2023-08-01T20:32:53;45.18;36.10;59.36;;
77135;Laerm;48586;50.122;18.972;2023-08-01T20:35:59;44.08;35.91;56.73;;
77135;Laerm;48586;50.122;18.972;2023-08-01T20:39:04;45.45;35.88;59.70;;
77135;Laerm;48586;50.122;18.972;2023-08-01T20:42:09;48.13;35.64;70.59;;
77135;Laerm;48586;50.122;18.972;2023-08-01T20:45:15;46.71;36.12;65.62;;
77135;Laerm;48586;50.122;18.972;2023-08-01T20:48:22;41.65;35.74;56.70;;
77135;Laerm;48586;50.122;18.972;2023-08-01T20:51:28;44.09;35.44;63.94;;
77135;Laerm;48586;50.122;18.972;2023-08-01T20:54:32;43.78;35.50;56.61;;
77135;Laerm;48586;50.122;18.972;2023-08-01T20:57:38;47.10;35.49;67.77;;
77135;Laerm;48586;50.122;18.972;2023-08-01T21:00:42;45.05;35.74;58.17;;
77135;Laerm;48586;50.122;18.972;2023-08-01T21:03:50;45.87;35.66;59.00;;
77135;Laerm;48586;50.122;18.972;2023-08-01T21:06:56;43.59;35.48;64.94;;
77135;Laerm;48586;50.122;18.972;2023-08-01T21:10:01;49.67;35.71;69.49;;
77135;Laerm;48586;50.122;18.972;2023-08-01T21:13:06;47.53;35.56;66.52;;
77135;Laerm;48586;50.122;18.972;2023-08-01T21:16:13;46.44;35.70;59.56;;
77135;Laerm;48586;50.122;18.972;2023-08-01T21:19:20;44.32;35.72;58.45;;
77135;Laerm;48586;50.122;18.972;2023-08-01T21:22:25;48.74;35.89;69.57;;
77135;Laerm;48586;50.122;18.972;2023-08-01T21:25:31;46.69;36.19;66.41;;
77135;Laerm;48586;50.122;18.972;2023-08-01T21:28:37;45.68;35.61;60.54;;
77135;Laerm;48586;50.122;18.972;2023-08-01T21:31:42;48.01;35.51;68.54;;
77135;Laerm;48586;50.122;18.972;2023-08-01T21:34:51;46.13;36.40;65.55;;
77135;Laerm;48586;50.122;18.972;2023-08-01T21:37:56;42.34;35.50;62.15;;
77135;Laerm;48586;50.122;18.972;2023-08-01T21:41:02;43.29;35.41;58.80;;
77135;Laerm;48586;50.122;18.972;2023-08-01T21:44:07;46.80;35.40;72.49;;
77135;Laerm;48586;50.122;18.972;2023-08-01T21:47:12;46.61;35.14;61.68;;
77135;Laerm;48586;50.122;18.972;2023-08-01T21:50:19;44.64;35.08;63.19;;
77135;Laerm;48586;50.122;18.972;2023-08-01T21:53:25;44.12;35.15;64.75;;
77135;Laerm;48586;50.122;18.972;2023-08-01T21:56:29;45.66;34.90;67.90;;
77135;Laerm;48586;50.122;18.972;2023-08-01T21:59:35;46.47;35.43;68.36;;
77135;Laerm;48586;50.122;18.972;2023-08-01T22:02:41;46.13;35.11;64.15;;
77135;Laerm;48586;50.122;18.972;2023-08-01T22:05:54;44.94;35.44;62.69;;
77135;Laerm;48586;50.122;18.972;2023-08-01T22:09:00;44.99;35.47;60.63;;
77135;Laerm;48586;50.122;18.972;2023-08-01T22:12:16;42.33;35.22;60.91;;
77135;Laerm;48586;50.122;18.972;2023-08-01T22:15:21;40.84;35.13;56.50;;
77135;Laerm;48586;50.122;18.972;2023-08-01T22:18:27;42.27;34.76;55.56;;
77135;Laerm;48586;50.122;18.972;2023-08-01T22:21:34;45.65;35.08;66.44;;
77135;Laerm;48586;50.122;18.972;2023-08-01T22:24:39;38.86;34.58;53.14;;
77135;Laerm;48586;50.122;18.972;2023-08-01T22:27:44;40.26;34.74;63.01;;
77135;Laerm;48586;50.122;18.972;2023-08-01T22:30:50;38.03;34.93;52.53;;
77135;Laerm;48586;50.122;18.972;2023-08-01T22:33:55;41.01;34.80;64.30;;
77135;Laerm;48586;50.122;18.972;2023-08-01T22:37:04;44.44;34.84;68.30;;
77135;Laerm;48586;50.122;18.972;2023-08-01T22:40:11;46.15;35.23;71.73;;
77135;Laerm;48586;50.122;18.972;2023-08-01T22:43:17;42.43;34.84;62.77;;
77135;Laerm;48586;50.122;18.972;2023-08-01T22:46:21;38.50;34.87;60.65;;
77135;Laerm;48586;50.122;18.972;2023-08-01T22:49:27;39.76;34.83;61.03;;
77135;Laerm;48586;50.122;18.972;2023-08-01T22:52:35;42.37;35.03;63.17;;
77135;Laerm;48586;50.122;18.972;2023-08-01T22:55:43;45.91;34.93;67.56;;
77135;Laerm;48586;50.122;18.972;2023-08-01T22:58:49;40.94;34.78;62.13;;
77135;Laerm;48586;50.122;18.972;2023-08-01T23:01:55;38.89;34.76;58.87;;
77135;Laerm;48586;50.122;18.972;2023-08-01T23:05:00;37.16;34.65;54.34;;
77135;Laerm;48586;50.122;18.972;2023-08-01T23:08:09;40.42;34.39;61.31;;
77135;Laerm;48586;50.122;18.972;2023-08-01T23:11:13;39.57;34.74;54.19;;
77135;Laerm;48586;50.122;18.972;2023-08-01T23:14:19;43.80;34.96;61.19;;
77135;Laerm;48586;50.122;18.972;2023-08-01T23:17:24;38.66;34.55;53.56;;
77135;Laerm;48586;50.122;18.972;2023-08-01T23:20:29;46.08;34.70;65.06;;
77135;Laerm;48586;50.122;18.972;2023-08-01T23:23:36;38.84;34.52;58.27;;
77135;Laerm;48586;50.122;18.972;2023-08-01T23:26:42;36.64;34.44;50.07;;
77135;Laerm;48586;50.122;18.972;2023-08-01T23:29:50;41.35;35.12;58.72;;
77135;Laerm;48586;50.122;18.972;2023-08-01T23:32:56;43.20;35.04;62.29;;
77135;Laerm;48586;50.122;18.972;2023-08-01T23:36:04;41.60;34.40;57.79;;
77135;Laerm;48586;50.122;18.972;2023-08-01T23:39:12;43.91;35.37;65.37;;
77135;Laerm;48586;50.122;18.972;2023-08-01T23:42:16;39.32;34.73;54.59;;
77135;Laerm;48586;50.122;18.972;2023-08-01T23:45:21;44.53;34.76;64.45;;
77135;Laerm;48586;50.122;18.972;2023-08-01T23:48:26;40.15;34.54;60.93;;
77135;Laerm;48586;50.122;18.972;2023-08-01T23:51:32;43.37;34.38;59.97;;
77135;Laerm;48586;50.122;18.972;2023-08-01T23:54:39;39.00;34.57;56.50;;
77135;Laerm;48586;50.122;18.972;2023-08-01T23:57:44;43.34;34.88;60.36;;
